Time;durP1;ratioP1;P1;durP2;ratioP2;P2;SDS_P1;SDS_P2;PMS_P1;PMS_P2;Temp;Humidity;BMP_temperature;BMP_pressure;BME280_temperature;BME280_humidity;BME280_pressure;Samples;Min_cycle;Max_cycle;Signal;HPM_P1;HPM_P2
2024/03/02 00:00:13;;;;;;;95.20;63.00;;;;;;;7.33;100.00;98283.90;109194;1255;59822;-72
2024/03/02 00:03:00;;;;;;;92.30;61.80;;;;;;;7.31;100.00;98284.92;109190;1255;75464;-72
2024/03/02 00:05:28;;;;;;;90.50;62.10;;;;;;;7.28;100.00;98280.70;109187;1255;61162;-71
2024/03/02 00:07:56;;;;;;;98.00;67.50;;;;;;;7.25;100.00;98284.41;109177;1255;63771;-71
2024/03/02 00:10:29;;;;;;;97.20;64.80;;;;;;;7.22;100.00;98287.78;109165;1256;59918;-72
2024/03/02 00:12:59;;;;;;;100.00;67.80;;;;;;;7.19;100.00;98287.27;109170;1255;59750;-72
2024/03/02 00:15:42;;;;;;;94.60;64.00;;;;;;;7.16;100.00;98289.38;109175;1255;66818;-72
2024/03/02 00:18:11;;;;;;;96.00;63.20;;;;;;;7.14;100.00;98290.22;109185;1255;59970;-72
2024/03/02 00:20:40;;;;;;;92.70;62.70;;;;;;;7.12;100.00;98288.46;109192;1255;62752;-71
2024/03/02 00:23:08;;;;;;;89.20;62.00;;;;;;;7.09;100.00;98289.15;108985;1256;60112;-72
2024/03/02 00:25:40;;;;;;;86.00;59.30;;;;;;;7.06;100.00;98286.16;109208;1255;60166;-73
2024/03/02 00:28:22;;;;;;;89.40;62.90;;;;;;;7.04;100.00;98284.39;109183;1255;66968;-72
2024/03/02 00:30:59;;;;;;;83.50;58.80;;;;;;;7.01;100.00;98289.14;109192;1256;60221;-72
2024/03/02 00:33:30;;;;;;;86.90;60.00;;;;;;;7.00;100.00;98288.29;109181;1256;64091;-72
2024/03/02 00:35:57;;;;;;;87.80;58.30;;;;;;;7.01;100.00;98287.18;109146;1255;59808;-71
2024/03/02 00:38:24;;;;;;;84.80;59.40;;;;;;;7.01;100.00;98287.70;109198;1255;60040;-72
2024/03/02 00:40:50;;;;;;;86.70;60.90;;;;;;;7.03;100.00;98286.35;109214;1256;66645;-72
2024/03/02 00:43:42;;;;;;;83.80;57.40;;;;;;;7.06;100.00;98285.28;109174;1257;60524;-73
2024/03/02 00:46:11;;;;;;;86.20;59.80;;;;;;;7.08;100.00;98283.97;109166;1256;63076;-72
2024/03/02 00:48:39;;;;;;;84.30;58.50;;;;;;;7.10;100.00;98284.52;109169;1255;59803;-72
2024/03/02 00:51:06;;;;;;;83.50;59.00;;;;;;;7.13;100.00;98288.55;108948;1256;59840;-73
2024/03/02 00:53:33;;;;;;;76.60;54.00;;;;;;;7.14;100.00;98284.23;109190;1255;60410;-73
2024/03/02 00:56:01;;;;;;;81.80;56.30;;;;;;;7.16;100.00;98280.41;109174;1255;60100;-72
2024/03/02 00:58:27;;;;;;;81.30;56.50;;;;;;;7.18;100.00;98281.67;109101;1256;64173;-73
2024/03/02 01:00:54;;;;;;;79.40;55.70;;;;;;;7.21;100.00;98283.82;109168;1256;59816;-73
2024/03/02 01:03:20;;;;;;;76.30;53.90;;;;;;;7.22;100.00;98284.95;109180;1255;59740;-73
2024/03/02 01:05:47;;;;;;;70.50;51.50;;;;;;;7.24;100.00;98283.95;109006;1256;67548;-73
2024/03/02 01:08:13;;;;;;;77.60;53.60;;;;;;;7.26;100.00;98279.42;109212;1255;59840;-73
2024/03/02 01:10:40;;;;;;;79.60;55.50;;;;;;;7.28;100.00;98278.40;109180;1255;62556;-72
2024/03/02 01:13:06;;;;;;;77.20;53.80;;;;;;;7.30;100.00;98274.36;109166;1255;59988;-71
2024/03/02 01:15:33;;;;;;;72.20;51.40;;;;;;;7.31;100.00;98269.52;109174;1256;59914;-72
2024/03/02 01:18:00;;;;;;;75.90;52.30;;;;;;;7.33;100.00;98266.25;108941;1256;66834;-73
2024/03/02 01:20:27;;;;;;;74.90;51.30;;;;;;;7.34;100.00;98262.13;109232;1255;60427;-71
2024/03/02 01:22:53;;;;;;;74.20;51.50;;;;;;;7.35;100.00;98262.58;109189;1256;62555;-73
2024/03/02 01:25:20;;;;;;;68.20;51.00;;;;;;;7.35;100.00;98259.55;109153;1256;59765;-73
2024/03/02 01:27:46;;;;;;;70.70;50.00;;;;;;;7.36;100.00;98255.65;109180;1256;59845;-73
2024/03/02 01:30:13;;;;;;;71.90;53.60;;;;;;;7.36;100.00;98254.59;109194;1255;67941;-73
2024/03/02 01:32:40;;;;;;;73.30;52.10;;;;;;;7.34;100.00;98254.11;109207;1255;60248;-72
2024/03/02 01:35:07;;;;;;;71.20;50.00;;;;;;;7.34;100.00;98250.59;109193;1256;65238;-73
2024/03/02 01:37:34;;;;;;;71.50;49.90;;;;;;;7.34;100.00;98245.52;108995;1256;59948;-73
2024/03/02 01:40:01;;;;;;;69.80;51.60;;;;;;;7.34;100.00;98246.22;109166;1255;60215;-72
2024/03/02 01:42:27;;;;;;;70.50;50.60;;;;;;;7.33;100.00;98242.92;108987;1255;67016;-73
2024/03/02 01:44:54;;;;;;;68.20;49.60;;;;;;;7.32;100.00;98245.10;108991;1256;60409;-72
2024/03/02 01:47:20;;;;;;;67.60;48.00;;;;;;;7.32;100.00;98245.84;109160;1255;62518;-72
2024/03/02 01:49:47;;;;;;;68.70;49.00;;;;;;;7.30;100.00;98244.16;109184;1256;59755;-72
2024/03/02 01:52:13;;;;;;;66.40;48.70;;;;;;;7.30;100.00;98240.48;109166;1255;59818;-73
2024/03/02 01:54:40;;;;;;;64.20;48.40;;;;;;;7.30;100.00;98239.23;109170;1256;60056;-72
2024/03/02 01:57:06;;;;;;;69.20;49.10;;;;;;;7.30;100.00;98234.10;109185;1255;60124;-73
2024/03/02 01:59:33;;;;;;;63.90;46.80;;;;;;;7.29;100.00;98232.17;109162;1256;59850;-72
2024/03/02 02:01:59;;;;;;;67.50;47.00;;;;;;;7.29;100.00;98229.58;109166;1255;59825;-73
2024/03/02 02:04:27;;;;;;;65.90;46.20;;;;;;;7.29;100.00;98236.30;108987;1256;59964;-73
2024/03/02 02:06:54;;;;;;;60.00;44.30;;;;;;;7.28;100.00;98241.14;109179;1255;67648;-72
2024/03/02 02:09:20;;;;;;;63.20;46.00;;;;;;;7.26;100.00;98241.73;109164;1255;60369;-72
2024/03/02 02:11:47;;;;;;;63.90;45.40;;;;;;;7.26;100.00;98242.65;109005;1255;62537;-73
2024/03/02 02:14:14;;;;;;;64.80;44.80;;;;;;;7.25;100.00;98247.44;109170;1256;59979;-72
2024/03/02 02:16:40;;;;;;;61.40;46.40;;;;;;;7.25;100.00;98245.20;109178;1255;59821;-72
2024/03/02 02:19:07;;;;;;;67.00;49.60;;;;;;;7.23;100.00;98239.13;109198;1255;65321;-72
2024/03/02 02:21:34;;;;;;;67.90;52.00;;;;;;;7.22;100.00;98238.16;108958;1256;59844;-71
2024/03/02 02:24:03;;;;;;;72.20;55.20;;;;;;;7.21;100.00;98243.54;109157;1256;63847;-71
2024/03/02 02:26:29;;;;;;;66.80;51.00;;;;;;;7.18;100.00;98245.80;109162;1256;59751;-72
2024/03/02 02:28:56;;;;;;;63.70;48.20;;;;;;;7.17;100.00;98243.05;108946;1256;59850;-72
2024/03/02 02:31:23;;;;;;;65.90;49.10;;;;;;;7.16;100.00;98238.86;109166;1256;68083;-71
2024/03/02 02:33:49;;;;;;;66.30;50.40;;;;;;;7.16;100.00;98234.33;109187;1256;60195;-71
2024/03/02 02:36:16;;;;;;;65.20;48.80;;;;;;;7.16;100.00;98234.14;109191;1256;64117;-71
2024/03/02 02:38:46;;;;;;;66.60;48.10;;;;;;;7.15;100.00;98238.96;109154;1255;59851;-72
2024/03/02 02:41:13;;;;;;;;;;;;;;;7.15;100.00;98234.89;109195;1256;60116;-72
2024/03/02 02:43:42;;;;;;;62.50;45.10;;;;;;;7.15;100.00;98233.86;109182;1256;60225;-72
2024/03/02 02:46:08;;;;;;;65.60;47.10;;;;;;;7.16;100.00;98239.40;109207;1255;60206;-73
2024/03/02 02:48:35;;;;;;;63.40;45.60;;;;;;;7.18;100.00;98241.27;108938;1256;59993;-72
2024/03/02 02:51:02;;;;;;;64.80;48.20;;;;;;;7.18;100.00;98238.23;109165;1255;59838;-73
2024/03/02 02:53:28;;;;;;;66.70;46.10;;;;;;;7.18;100.00;98238.94;109194;1256;59884;-72
2024/03/02 02:55:55;;;;;;;63.90;47.70;;;;;;;7.18;100.00;98241.24;109205;1256;65643;-72
2024/03/02 02:58:21;;;;;;;68.80;49.40;;;;;;;7.18;100.00;98244.44;109181;1256;59835;-72
2024/03/02 03:00:48;;;;;;;66.10;48.40;;;;;;;7.17;100.00;98240.24;109145;1256;59851;-72
2024/03/02 03:03:14;;;;;;;66.50;48.50;;;;;;;7.16;100.00;98245.23;109174;1259;59846;-73
2024/03/02 03:05:41;;;;;;;68.30;49.40;;;;;;;7.15;100.00;98237.39;109151;1256;59810;-72
2024/03/02 03:08:07;;;;;;;66.10;49.60;;;;;;;7.13;100.00;98237.50;109200;1256;60117;-73
2024/03/02 03:10:34;;;;;;;67.70;49.50;;;;;;;7.12;100.00;98242.52;108976;1256;60796;-73
2024/03/02 03:13:00;;;;;;;64.50;49.00;;;;;;;7.11;100.00;98242.75;109160;1256;64077;-73
2024/03/02 03:15:27;;;;;;;63.70;47.20;;;;;;;7.11;100.00;98240.45;109181;1256;59866;-72
2024/03/02 03:17:53;;;;;;;69.90;52.60;;;;;;;7.12;100.00;98243.06;109189;1255;59823;-73
2024/03/02 03:20:21;;;;;;;55.20;44.60;;;;;;;7.13;100.00;98245.11;109140;1256;60302;-73
2024/03/02 03:22:47;;;;;;;57.00;44.10;;;;;;;7.14;100.00;98247.15;109190;1256;60102;-72
2024/03/02 03:25:14;;;;;;;58.10;43.00;;;;;;;7.15;100.00;98246.38;109155;1256;64918;-73
2024/03/02 03:27:41;;;;;;;60.00;43.30;;;;;;;7.16;100.00;98252.52;109203;1255;59858;-73
2024/03/02 03:30:08;;;;;;;59.60;44.30;;;;;;;7.17;100.00;98254.00;109187;1256;59758;-73
2024/03/02 03:32:35;;;;;;;59.30;40.60;;;;;;;7.18;100.00;98253.56;109187;1256;66802;-73
2024/03/02 03:35:01;;;;;;;54.00;40.10;;;;;;;7.20;100.00;98252.98;109218;1256;59855;-73
2024/03/02 03:37:32;;;;;;;56.70;42.30;;;;;;;7.21;100.00;98252.17;109158;1256;63059;-72
2024/03/02 03:40:00;;;;;;;56.40;41.40;;;;;;;7.22;100.00;98251.61;109161;1255;59750;-72
2024/03/02 03:42:27;;;;;;;55.40;39.70;;;;;;;7.22;100.00;98247.50;109154;1256;59810;-72
2024/03/02 03:44:54;;;;;;;49.30;39.60;;;;;;;7.22;100.00;98241.84;109165;1256;67744;-71
2024/03/02 03:47:21;;;;;;;52.90;39.40;;;;;;;7.22;100.00;98237.77;109185;1256;60211;-72
2024/03/02 03:49:47;;;;;;;59.70;42.30;;;;;;;7.21;100.00;98230.60;109164;1255;59820;-71
2024/03/02 03:52:14;;;;;;;55.10;40.40;;;;;;;7.20;100.00;98225.23;109105;1255;59799;-72
2024/03/02 03:54:42;;;;;;;54.30;39.90;;;;;;;7.17;100.00;98223.81;109177;1256;60553;-72
2024/03/02 03:57:09;;;;;;;51.40;40.50;;;;;;;7.14;100.00;98227.75;109185;1256;76561;-72
2024/03/02 03:59:37;;;;;;;54.50;39.80;;;;;;;7.10;100.00;98229.77;109181;1256;60058;-70
2024/03/02 04:02:04;;;;;;;60.00;43.30;;;;;;;7.09;100.00;98228.09;109163;1256;64128;-71
2024/03/02 04:04:30;;;;;;;58.30;42.50;;;;;;;7.06;100.00;98225.61;109164;1259;60052;-72
2024/03/02 04:06:57;;;;;;;56.40;41.20;;;;;;;7.04;100.00;98223.26;109175;1255;59800;-71
2024/03/02 04:09:23;;;;;;;53.00;40.30;;;;;;;7.02;100.00;98224.26;109212;1256;66660;-72
2024/03/02 04:11:50;;;;;;;57.80;43.20;;;;;;;7.01;100.00;98225.39;109169;1256;59801;-72
2024/03/02 04:14:17;;;;;;;58.70;43.40;;;;;;;7.00;100.00;98226.66;109181;1256;59836;-72
2024/03/02 04:16:43;;;;;;;60.80;44.50;;;;;;;7.00;100.00;98228.81;109134;1256;59752;-72
2024/03/02 04:19:10;;;;;;;61.80;48.60;;;;;;;6.99;100.00;98230.98;109189;1256;59758;-71
2024/03/02 04:21:37;;;;;;;59.70;46.20;;;;;;;6.98;100.00;98232.30;109174;1255;60491;-72
2024/03/02 04:24:04;;;;;;;59.90;47.10;;;;;;;6.96;100.00;98228.21;109181;1256;60308;-71
2024/03/02 04:26:30;;;;;;;65.00;48.20;;;;;;;6.93;100.00;98232.45;109142;1256;63717;-71
2024/03/02 04:28:56;;;;;;;58.90;44.70;;;;;;;6.90;100.00;98232.43;109175;1255;59823;-71
2024/03/02 04:31:23;;;;;;;60.50;44.90;;;;;;;6.87;100.00;98231.38;108975;1256;59884;-72
2024/03/02 04:33:49;;;;;;;65.10;46.00;;;;;;;6.85;100.00;98231.55;109164;1256;60249;-72
2024/03/02 04:36:16;;;;;;;64.60;46.50;;;;;;;6.80;100.00;98240.52;109177;1256;59843;-71
2024/03/02 04:38:43;;;;;;;65.40;46.90;;;;;;;6.74;100.00;98243.54;109188;1256;64046;-72
2024/03/02 04:41:09;;;;;;;66.20;48.10;;;;;;;6.69;100.00;98242.45;109144;1256;60185;-72
2024/03/02 04:43:36;;;;;;;66.60;49.00;;;;;;;6.64;100.00;98240.64;109225;1256;59879;-72
2024/03/02 04:46:02;;;;;;;70.60;51.40;;;;;;;6.59;100.00;98242.55;109146;1259;65439;-72
2024/03/02 04:48:29;;;;;;;75.20;54.80;;;;;;;6.53;100.00;98243.23;109187;1256;59776;-72
2024/03/02 04:50:55;;;;;;;83.00;56.90;;;;;;;6.48;100.00;98243.04;109193;1255;63758;-72
2024/03/02 04:53:22;;;;;;;66.50;49.70;;;;;;;6.44;100.00;98240.84;109154;1256;60837;-71
2024/03/02 04:56:09;;;;;;;73.90;54.00;;;;;;;6.39;100.00;98240.08;109186;1256;59761;-73
2024/03/02 04:58:36;;;;;;;77.70;53.90;;;;;;;6.34;100.00;98243.95;109115;1256;67083;-73
2024/03/02 05:01:03;;;;;;;74.00;54.70;;;;;;;6.29;100.00;98249.31;109196;1255;60151;-73
2024/03/02 05:03:29;;;;;;;79.50;58.00;;;;;;;6.25;100.00;98250.11;108934;1257;64308;-72
2024/03/02 05:05:56;;;;;;;68.50;53.80;;;;;;;6.21;100.00;98249.48;109142;1256;59863;-72
2024/03/02 05:08:22;;;;;;;68.20;51.50;;;;;;;6.18;100.00;98255.64;109200;1256;59772;-72
2024/03/02 05:10:49;;;;;;;72.40;54.70;;;;;;;6.16;100.00;98257.38;109200;1256;66898;-72
2024/03/02 05:13:17;;;;;;;73.10;52.40;;;;;;;6.13;100.00;98258.92;109151;1256;60131;-73
2024/03/02 05:15:43;;;;;;;71.20;55.40;;;;;;;6.12;100.00;98258.84;109161;1256;62661;-72
2024/03/02 05:18:10;;;;;;;69.00;51.50;;;;;;;6.09;100.00;98263.05;108982;1256;59793;-72
2024/03/02 05:20:36;;;;;;;67.40;50.20;;;;;;;6.07;100.00;98264.23;109173;1256;59738;-72
2024/03/02 05:23:03;;;;;;;68.40;50.00;;;;;;;6.06;100.00;98266.08;109182;1256;66501;-72
2024/03/02 05:25:30;;;;;;;71.40;52.80;;;;;;;6.04;100.00;98264.61;109208;1255;60090;-72
2024/03/02 05:27:56;;;;;;;66.20;50.50;;;;;;;6.03;100.00;98265.20;109143;1255;64130;-71
2024/03/02 05:30:23;;;;;;;70.70;55.10;;;;;;;6.02;100.00;98269.51;109147;1256;59879;-71
2024/03/02 05:32:49;;;;;;;67.50;52.10;;;;;;;6.01;100.00;98272.23;109172;1257;59699;-73
2024/03/02 05:35:16;;;;;;;71.10;51.70;;;;;;;6.01;100.00;98270.11;109181;1256;60605;-73
2024/03/02 05:37:42;;;;;;;64.20;49.30;;;;;;;6.02;100.00;98271.81;109156;1257;59787;-72
2024/03/02 05:40:10;;;;;;;65.40;51.70;;;;;;;6.02;100.00;98274.77;109197;1256;60792;-73
2024/03/02 05:42:38;;;;;;;69.30;52.60;;;;;;;6.04;100.00;98276.09;109166;1256;59822;-72
2024/03/02 05:45:05;;;;;;;75.10;53.80;;;;;;;6.06;100.00;98277.34;109173;1256;59824;-71
2024/03/02 05:47:32;;;;;;;75.60;55.80;;;;;;;6.10;100.00;98283.28;108997;1262;67335;-72
2024/03/02 05:49:59;;;;;;;74.30;54.40;;;;;;;6.13;100.00;98286.80;109172;1256;60259;-72
2024/03/02 05:52:25;;;;;;;78.60;55.30;;;;;;;6.18;100.00;98284.98;109204;1256;62558;-72
2024/03/02 05:54:52;;;;;;;68.60;49.10;;;;;;;6.21;100.00;98281.42;109011;1256;59780;-72
2024/03/02 06:00:09;;;;;;;63.90;49.10;;;;;;;6.29;100.00;98287.42;109024;1256;66958;-72
2024/03/02 06:02:38;;;;;;;67.10;48.50;;;;;;;6.33;100.00;98290.91;109189;1255;59830;-72
2024/03/02 06:05:07;;;;;;;63.80;48.40;;;;;;;6.36;100.00;98289.48;109174;1256;65073;-72
2024/03/02 06:07:33;;;;;;;65.20;47.60;;;;;;;6.40;100.00;98293.69;109148;1256;59845;-73
2024/03/02 06:10:00;;;;;;;67.80;52.40;;;;;;;6.44;100.00;98296.08;109202;1255;59835;-73
2024/03/02 06:12:26;;;;;;;59.70;48.00;;;;;;;6.47;100.00;98296.02;109198;1258;65324;-72
2024/03/02 06:14:53;;;;;;;59.00;45.60;;;;;;;6.52;100.00;98293.65;108951;1256;59966;-71
2024/03/02 06:17:19;;;;;;;61.40;46.20;;;;;;;6.56;100.00;98292.81;109206;1255;64076;-72
2024/03/02 06:19:46;;;;;;;63.70;48.60;;;;;;;6.61;100.00;98292.88;108936;1259;59909;-71
2024/03/02 06:22:12;;;;;;;60.50;45.50;;;;;;;6.67;100.00;98297.63;108940;1259;59799;-72
2024/03/02 06:24:39;;;;;;;66.20;49.30;;;;;;;6.73;100.00;98297.23;108910;1259;74299;-73
2024/03/02 06:27:05;;;;;;;61.80;46.70;;;;;;;6.79;100.00;98297.58;108939;1259;60004;-73
2024/03/02 06:29:33;;;;;;;60.70;46.00;;;;;;;6.84;100.00;98298.32;108789;1259;62870;-73
2024/03/02 06:32:00;;;;;;;56.10;45.40;;;;;;;6.90;100.00;98294.98;108898;1259;60096;-72
2024/03/02 06:34:27;;;;;;;61.20;47.70;;;;;;;6.96;100.00;98291.23;108923;1259;59687;-73
2024/03/02 06:36:53;;;;;;;64.90;51.70;;;;;;;7.02;100.00;98289.45;108938;1259;59812;-73
2024/03/02 06:39:20;;;;;;;61.50;49.20;;;;;;;7.07;100.00;98291.44;108941;1259;59877;-72
2024/03/02 06:41:49;;;;;;;65.60;49.70;;;;;;;7.13;100.00;98290.34;108945;1263;59876;-73
2024/03/02 06:44:15;;;;;;;65.30;49.70;;;;;;;7.18;100.00;98290.00;108898;1259;60224;-72
2024/03/02 06:46:42;;;;;;;64.80;51.80;;;;;;;7.23;100.00;98293.35;108932;1259;60125;-73
2024/03/02 06:49:10;;;;;;;60.50;48.30;;;;;;;7.31;100.00;98295.34;108925;1259;66539;-72
2024/03/02 06:51:36;;;;;;;62.70;50.90;;;;;;;7.37;100.00;98296.85;109119;1257;60077;-73
2024/03/02 06:54:03;;;;;;;64.10;53.30;;;;;;;7.42;100.00;98297.65;109189;1256;63742;-73
2024/03/02 06:56:30;;;;;;;65.20;51.80;;;;;;;7.46;100.00;98296.31;109167;1259;59820;-72
2024/03/02 06:58:57;;;;;;;61.90;48.50;;;;;;;7.52;100.00;98292.95;109231;1256;59745;-73
2024/03/02 07:01:26;;;;;;;69.80;54.60;;;;;;;7.55;100.00;98294.48;109145;1259;60094;-72
2024/03/02 07:03:52;;;;;;;68.00;57.90;;;;;;;7.61;100.00;98295.86;109187;1257;59883;-73
2024/03/02 07:06:19;;;;;;;76.40;63.60;;;;;;;7.69;100.00;98300.63;109180;1256;59810;-73
2024/03/02 07:08:45;;;;;;;65.00;54.20;;;;;;;7.77;100.00;98299.95;109149;1256;60119;-72
2024/03/02 07:11:12;;;;;;;71.00;59.30;;;;;;;7.82;100.00;98306.50;109216;1257;60000;-72
2024/03/02 07:13:38;;;;;;;68.50;58.30;;;;;;;7.90;100.00;98311.26;109209;1257;59796;-73
2024/03/02 07:18:41;;;;;;;67.10;54.40;;;;;;;8.04;100.00;98318.28;109188;1257;62687;-73
2024/03/02 07:21:07;;;;;;;70.90;57.40;;;;;;;8.09;100.00;98317.60;109218;1256;59839;-72
2024/03/02 07:23:34;;;;;;;77.10;61.50;;;;;;;8.17;100.00;98318.33;109027;1255;59863;-73
2024/03/02 07:26:01;;;;;;;87.50;77.90;;;;;;;8.21;100.00;98320.83;109150;1259;60104;-72
2024/03/02 07:28:28;;;;;;;90.10;78.80;;;;;;;8.24;100.00;98326.66;109204;1256;59969;-72
2024/03/02 07:31:02;;;;;;;118.50;106.00;;;;;;;8.27;100.00;98328.57;109186;1257;64249;-72
2024/03/02 07:33:29;;;;;;;99.90;89.70;;;;;;;8.34;100.00;98327.02;109210;1256;59733;-72
2024/03/02 07:35:56;;;;;;;70.10;60.40;;;;;;;8.43;100.00;98328.55;109202;1257;59782;-72
2024/03/02 07:38:23;;;;;;;67.40;58.60;;;;;;;8.51;100.00;98328.89;109189;1258;65674;-71
2024/03/02 07:40:53;;;;;;;63.60;55.00;;;;;;;8.61;100.00;98325.89;109210;1256;59855;-71
2024/03/02 07:43:20;;;;;;;62.20;55.00;;;;;;;8.72;100.00;98324.45;109153;1256;62552;-72
2024/03/02 07:45:47;;;;;;;59.70;50.80;;;;;;;8.85;100.00;98322.66;109033;1255;59909;-72
2024/03/02 07:48:15;;;;;;;59.10;49.70;;;;;;;8.97;100.00;98326.19;109234;1256;60006;-71
2024/03/02 07:50:42;;;;;;;55.50;46.80;;;;;;;9.10;100.00;98326.73;109184;1257;66126;-72
2024/03/02 07:53:09;;;;;;;53.60;44.80;;;;;;;9.16;100.00;98330.33;109183;1256;61223;-72
2024/03/02 07:55:36;;;;;;;57.10;46.80;;;;;;;9.19;100.00;98335.64;109193;1256;64887;-72
2024/03/02 07:58:03;;;;;;;55.20;47.90;;;;;;;9.25;100.00;98337.51;109193;1256;60103;-73
2024/03/02 08:00:29;;;;;;;60.20;50.30;;;;;;;9.32;100.00;98335.08;109185;1257;59845;-72
2024/03/02 08:02:56;;;;;;;59.10;49.50;;;;;;;9.37;100.00;98340.70;109213;1257;66945;-73
2024/03/02 08:05:23;;;;;;;59.90;49.80;;;;;;;9.43;100.00;98341.33;109194;1257;59818;-73
2024/03/02 08:07:53;;;;;;;57.30;47.00;;;;;;;9.50;100.00;98342.80;109153;1256;64019;-73
2024/03/02 08:10:20;;;;;;;60.70;47.90;;;;;;;9.55;100.00;98345.06;109176;1256;59822;-72
2024/03/02 08:12:46;;;;;;;55.80;45.40;;;;;;;9.61;100.00;98342.66;109195;1255;60072;-71
2024/03/02 08:15:13;;;;;;;55.50;46.30;;;;;;;9.69;100.00;98340.14;109209;1255;66536;-73
2024/03/02 08:17:48;;;;;;;56.00;45.40;;;;;;;9.73;100.00;98344.30;109157;1258;60313;-72
2024/03/02 08:20:14;;;;;;;53.10;43.80;;;;;;;9.74;100.00;98342.30;109162;1258;64094;-73
2024/03/02 08:22:41;;;;;;;50.50;42.80;;;;;;;9.71;100.00;98345.15;109186;1257;59835;-74
2024/03/02 08:25:08;;;;;;;51.10;44.90;;;;;;;9.69;100.00;98342.48;109221;1257;60076;-73
2024/03/02 08:27:35;;;;;;;49.90;43.90;;;;;;;9.68;100.00;98344.63;109193;1256;66876;-73
2024/03/02 08:30:03;;;;;;;52.30;45.10;;;;;;;9.64;100.00;98347.60;109192;1257;60141;-72
2024/03/02 08:32:30;;;;;;;53.40;45.20;;;;;;;9.61;100.00;98343.77;109172;1257;62609;-72
2024/03/02 08:34:56;;;;;;;57.50;44.70;;;;;;;9.61;100.00;98344.31;109178;1256;59777;-72
2024/03/02 08:37:23;;;;;;;54.10;44.90;;;;;;;9.61;100.00;98348.19;109191;1256;59759;-73
2024/03/02 08:39:50;;;;;;;57.60;45.90;;;;;;;9.61;100.00;98349.59;108840;1256;65678;-73
2024/03/02 08:42:17;;;;;;;54.30;46.00;;;;;;;9.59;100.00;98349.23;109192;1257;59924;-72
2024/03/02 08:44:44;;;;;;;53.90;45.90;;;;;;;9.51;100.00;98352.27;109196;1256;64342;-73
2024/03/02 08:47:10;;;;;;;59.20;50.10;;;;;;;9.46;100.00;98352.50;108986;1257;59908;-72
2024/03/02 08:49:36;;;;;;;56.80;45.40;;;;;;;9.42;100.00;98352.05;109210;1257;59771;-72
2024/03/02 08:52:03;;;;;;;54.30;45.30;;;;;;;9.37;100.00;98352.42;109035;1256;66526;-72
2024/03/02 08:54:31;;;;;;;51.90;43.20;;;;;;;9.32;100.00;98357.37;109234;1257;59941;-71
2024/03/02 08:56:57;;;;;;;57.50;47.00;;;;;;;9.29;100.00;98360.98;109207;1256;62763;-72
2024/03/02 08:59:25;;;;;;;57.70;46.10;;;;;;;9.28;100.00;98361.41;109198;1255;59787;-72
2024/03/02 09:01:51;;;;;;;57.00;46.50;;;;;;;9.24;100.00;98365.23;109269;1254;59733;-72
2024/03/02 09:04:18;;;;;;;56.10;45.20;;;;;;;9.21;100.00;98367.00;109300;1254;68170;-72
2024/03/02 09:06:44;;;;;;;60.80;46.90;;;;;;;9.23;100.00;98365.80;109286;1254;59880;-71
2024/03/02 09:09:11;;;;;;;63.00;51.50;;;;;;;9.29;100.00;98367.70;109270;1254;60100;-72
2024/03/02 09:11:37;;;;;;;77.70;61.60;;;;;;;9.35;100.00;98371.55;109299;1254;60111;-73
2024/03/02 09:14:05;;;;;;;61.50;49.50;;;;;;;9.39;100.00;98369.96;109293;1254;60023;-72
2024/03/02 09:16:31;;;;;;;60.90;51.60;;;;;;;9.40;100.00;98374.34;109189;1254;66923;-72
2024/03/02 09:18:58;;;;;;;52.70;44.90;;;;;;;9.47;100.00;98376.54;109303;1254;59873;-72
2024/03/02 09:21:25;;;;;;;58.40;50.70;;;;;;;9.51;100.00;98374.13;109258;1254;63870;-72
2024/03/02 09:23:51;;;;;;;52.20;45.30;;;;;;;9.55;100.00;98376.09;109268;1254;59848;-71
2024/03/02 09:26:20;;;;;;;55.20;46.90;;;;;;;9.58;100.00;98376.39;109302;1254;59770;-72
2024/03/02 09:28:47;;;;;;;54.30;45.20;;;;;;;9.63;100.00;98376.75;109331;1254;68316;-73
2024/03/02 09:31:13;;;;;;;52.80;42.90;;;;;;;9.69;100.00;98374.92;109290;1254;60165;-72
2024/03/02 09:33:40;;;;;;;54.00;44.00;;;;;;;9.71;100.00;98376.05;109333;1254;63882;-72
2024/03/02 09:36:20;;;;;;;58.90;47.70;;;;;;;9.72;100.00;98375.44;109295;1254;60160;-72
2024/03/02 09:38:46;;;;;;;48.50;42.80;;;;;;;9.74;100.00;98376.73;109281;1254;59782;-72
2024/03/02 09:41:14;;;;;;;53.20;46.50;;;;;;;9.72;100.00;98384.47;109060;1254;66596;-72
2024/03/02 09:43:41;;;;;;;51.80;42.40;;;;;;;9.77;100.00;98385.55;109267;1254;59924;-72
2024/03/02 09:46:11;;;;;;;53.00;42.50;;;;;;;9.80;100.00;98387.81;109278;1254;63252;-73
2024/03/02 09:48:37;;;;;;;53.30;42.30;;;;;;;9.78;100.00;98393.09;109001;1254;59816;-72
2024/03/02 09:51:05;;;;;;;52.90;43.30;;;;;;;9.76;100.00;98397.83;109311;1254;59685;-71
2024/03/02 09:53:33;;;;;;;51.20;42.20;;;;;;;9.75;100.00;98406.42;109321;1254;66617;-73
2024/03/02 09:56:00;;;;;;;53.80;44.20;;;;;;;9.72;100.00;98412.67;109294;1254;59841;-72
2024/03/02 09:58:27;;;;;;;51.40;44.10;;;;;;;9.72;100.00;98414.60;109257;1254;64095;-71
2024/03/02 10:00:53;;;;;;;57.60;44.90;;;;;;;9.71;100.00;98416.30;109272;1254;59729;-72
2024/03/02 10:03:22;;;;;;;51.40;42.50;;;;;;;9.66;100.00;98414.46;109299;1254;60013;-72
2024/03/02 10:05:49;;;;;;;47.40;40.70;;;;;;;9.63;100.00;98412.05;109330;1254;66668;-71
2024/03/02 10:08:15;;;;;;;46.10;38.50;;;;;;;9.60;100.00;98413.52;109276;1254;59741;-72
2024/03/02 10:10:43;;;;;;;50.00;40.70;;;;;;;9.57;100.00;98419.04;109280;1254;60027;-72
2024/03/02 10:13:11;;;;;;;46.90;39.60;;;;;;;9.59;100.00;98414.27;109254;1254;59891;-72
2024/03/02 10:15:42;;;;;;;46.40;39.00;;;;;;;9.60;100.00;98411.04;109311;1254;59820;-72
2024/03/02 10:18:13;;;;;;;48.40;39.80;;;;;;;9.60;100.00;98410.31;109268;1254;66572;-72
2024/03/02 10:20:40;;;;;;;48.60;40.10;;;;;;;9.62;100.00;98411.21;109269;1254;60962;-72
2024/03/02 10:23:16;;;;;;;54.10;43.00;;;;;;;9.62;100.00;98410.54;109284;1254;63909;-72
2024/03/02 10:25:44;;;;;;;55.80;45.30;;;;;;;9.63;100.00;98413.29;109299;1254;60110;-73
2024/03/02 10:28:10;;;;;;;54.30;46.90;;;;;;;9.66;100.00;98412.72;109257;1254;59882;-72
2024/03/02 10:30:37;;;;;;;55.80;47.10;;;;;;;9.72;100.00;98413.16;109300;1254;65639;-72
2024/03/02 10:33:06;;;;;;;53.80;44.60;;;;;;;9.77;100.00;98410.00;109327;1254;59751;-72
2024/03/02 10:35:36;;;;;;;49.30;43.00;;;;;;;9.83;100.00;98407.42;109281;1254;63958;-72
2024/03/02 10:38:04;;;;;;;52.70;41.70;;;;;;;9.88;100.00;98406.52;109283;1254;59878;-72
2024/03/02 10:40:31;;;;;;;50.40;42.70;;;;;;;9.93;100.00;98402.42;109273;1254;59782;-72
2024/03/02 10:42:59;;;;;;;50.60;41.30;;;;;;;9.95;100.00;98403.85;109052;1255;66759;-72
2024/03/02 10:45:26;;;;;;;49.70;42.80;;;;;;;9.98;100.00;98401.30;109297;1254;59968;-71
2024/03/02 10:47:52;;;;;;;50.90;43.30;;;;;;;10.04;100.00;98400.91;109254;1254;65145;-71
2024/03/02 10:50:19;;;;;;;50.00;42.60;;;;;;;10.08;100.00;98401.62;109261;1254;59812;-72
2024/03/02 10:52:45;;;;;;;53.30;44.10;;;;;;;10.13;100.00;98397.02;109292;1254;59845;-73
2024/03/02 10:55:12;;;;;;;51.60;42.00;;;;;;;10.16;100.00;98394.89;109285;1254;67005;-72
2024/03/02 10:57:45;;;;;;;50.50;42.20;;;;;;;10.20;100.00;98393.88;109259;1254;59846;-71
2024/03/02 11:00:14;;;;;;;56.20;45.70;;;;;;;10.28;100.00;98393.79;109274;1254;64152;-71
2024/03/02 11:02:51;;;;;;;49.00;42.40;;;;;;;10.37;100.00;98391.70;109265;1254;60014;-73
2024/03/02 11:05:28;;;;;;;48.20;42.30;;;;;;;10.47;100.00;98390.61;109274;1254;59660;-72
2024/03/02 11:08:03;;;;;;;52.20;44.00;;;;;;;10.54;100.00;98391.48;109290;1254;66530;-71
2024/03/02 11:10:51;;;;;;;53.30;46.20;;;;;;;10.64;100.00;98388.95;109323;1256;60187;-71
2024/03/02 11:13:31;;;;;;;51.10;43.80;;;;;;;10.72;100.00;98385.31;109249;1254;63842;-72
2024/03/02 11:16:05;;;;;;;51.70;44.70;;;;;;;10.78;100.00;98386.68;109254;1254;60681;-72